createdAt,value
2022-10-18T00:00:12.826Z,92.28
2022-10-18T00:04:14.570Z,92.17
2022-10-18T00:08:18.747Z,92.38
2022-10-18T00:12:20.298Z,92.28
2022-10-18T00:16:21.839Z,92.46
2022-10-18T00:20:23.296Z,92.51
2022-10-18T00:24:26.217Z,92.36
2022-10-18T00:28:27.853Z,92.33
2022-10-18T00:32:29.925Z,92.54
2022-10-18T00:36:33.169Z,92.51
2022-10-18T00:40:35.977Z,92.31
2022-10-18T00:45:04.877Z,92.93
2022-10-18T00:49:11.094Z,93.10
2022-10-18T00:53:16.198Z,93.28
2022-10-18T00:57:19.301Z,93.26
2022-10-18T01:01:24.406Z,93.64
2022-10-18T01:05:29.090Z,93.64
2022-10-18T01:09:39.639Z,93.71
2022-10-18T01:13:56.066Z,93.60
2022-10-18T01:18:04.673Z,93.74
2022-10-18T01:22:15.158Z,93.61
2022-10-18T01:26:30.134Z,94.13
2022-10-18T01:30:47.835Z,94.06
2022-10-18T01:34:51.939Z,94.34
2022-10-18T01:38:57.503Z,94.13
2022-10-18T01:43:00.806Z,94.25
2022-10-18T01:47:06.421Z,94.38
2022-10-18T01:51:09.557Z,94.20
2022-10-18T01:55:11.290Z,93.88
2022-10-18T01:59:39.513Z,93.32
2022-10-18T02:03:46.291Z,93.32
2022-10-18T02:08:05.878Z,93.71
2022-10-18T02:12:20.238Z,93.78
2022-10-18T02:16:25.307Z,93.78
2022-10-18T02:20:29.657Z,94.27
2022-10-18T02:24:35.681Z,94.06
2022-10-18T02:28:37.455Z,94.56
2022-10-18T02:32:44.537Z,94.84
2022-10-18T02:36:51.421Z,94.73
2022-10-18T02:40:53.241Z,94.95
2022-10-18T02:44:54.782Z,95.15
2022-10-18T02:48:56.185Z,95.33
2022-10-18T02:52:59.125Z,95.58
2022-10-18T02:57:00.689Z,95.86
2022-10-18T03:01:02.323Z,95.99
2022-10-18T03:05:04.705Z,95.79
2022-10-18T03:09:07.533Z,96.07
2022-10-18T03:13:09.046Z,96.20
2022-10-18T03:17:10.638Z,96.02
2022-10-18T03:21:12.518Z,96.00
2022-10-18T03:25:15.398Z,96.24
2022-10-18T03:29:17.811Z,96.48
2022-10-18T03:33:19.624Z,96.57
2022-10-18T03:37:21.195Z,96.48
2022-10-18T03:41:23.971Z,96.34
2022-10-18T03:45:28.947Z,96.32
2022-10-18T03:53:35.278Z,95.75
2022-10-18T03:57:38.036Z,95.87
2022-10-18T04:01:39.693Z,96.15
2022-10-18T04:05:41.171Z,96.16
2022-10-18T04:09:42.690Z,96.11
2022-10-18T04:13:45.462Z,96.12
2022-10-18T04:17:47.057Z,96.10
2022-10-18T04:21:48.613Z,96.04
2022-10-18T04:25:50.193Z,96.48
2022-10-18T04:29:53.114Z,96.80
2022-10-18T04:33:54.829Z,96.66
2022-10-18T04:37:56.368Z,97.05
2022-10-18T04:41:57.918Z,97.24
2022-10-18T04:46:00.933Z,97.06
2022-10-18T04:50:02.506Z,97.01
2022-10-18T04:54:04.130Z,97.10
2022-10-18T04:58:05.642Z,96.79
2022-10-18T05:02:08.588Z,96.98
2022-10-18T05:06:10.339Z,96.92
2022-10-18T05:10:11.950Z,97.01
2022-10-18T05:14:13.484Z,96.91
2022-10-18T05:18:16.471Z,96.99
2022-10-18T05:22:18.106Z,96.78
2022-10-18T05:26:19.538Z,96.92
2022-10-18T05:30:21.000Z,96.67
2022-10-18T05:34:24.127Z,96.60
2022-10-18T05:38:26.328Z,96.53
2022-10-18T05:42:28.059Z,96.88
2022-10-18T05:46:29.684Z,96.84
2022-10-18T05:50:36.645Z,96.76
2022-10-18T05:54:41.015Z,96.73
2022-10-18T05:58:43.070Z,96.62
2022-10-18T06:02:44.582Z,97.08
2022-10-18T06:06:47.460Z,96.90
2022-10-18T06:10:48.906Z,96.67
2022-10-18T06:14:50.357Z,97.07
2022-10-18T06:18:54.134Z,96.83
2022-10-18T06:22:56.871Z,96.85
2022-10-18T06:26:58.779Z,96.61
2022-10-18T06:31:00.297Z,96.55
2022-10-18T06:35:02.032Z,96.83
2022-10-18T06:39:04.878Z,96.75
2022-10-18T06:43:20.159Z,96.42
2022-10-18T06:47:22.974Z,96.48
2022-10-18T06:51:24.697Z,96.55
2022-10-18T06:55:27.521Z,96.78
2022-10-18T06:59:31.324Z,96.67
2022-10-18T07:03:33.388Z,96.78
2022-10-18T07:07:35.291Z,96.74
2022-10-18T07:11:38.713Z,96.39
2022-10-18T07:15:40.086Z,96.62
2022-10-18T07:19:41.678Z,96.71
2022-10-18T07:23:44.774Z,96.78
2022-10-18T07:27:47.713Z,96.67
2022-10-18T07:31:49.266Z,96.67
2022-10-18T07:35:50.693Z,96.83
2022-10-18T07:39:52.117Z,96.93
2022-10-18T07:43:54.942Z,97.23
2022-10-18T07:47:56.814Z,97.23
2022-10-18T07:51:58.373Z,97.15
2022-10-18T07:56:02.444Z,96.83
2022-10-18T08:00:08.995Z,96.77
2022-10-18T08:04:15.416Z,97.08
2022-10-18T08:08:17.697Z,96.76
2022-10-18T08:12:19.383Z,96.76
2022-10-18T08:16:23.647Z,96.16
2022-10-18T08:20:30.902Z,96.38
2022-10-18T08:24:32.890Z,96.69
2022-10-18T08:28:34.977Z,96.42
2022-10-18T08:32:37.916Z,96.44
2022-10-18T08:36:39.442Z,96.17
2022-10-18T08:40:43.273Z,96.53
2022-10-18T08:44:47.160Z,96.36
2022-10-18T08:48:54.149Z,95.91
2022-10-18T08:53:01.355Z,95.98
2022-10-18T08:57:05.120Z,95.85
2022-10-18T09:01:20.954Z,95.40
2022-10-18T09:05:31.823Z,95.58
2022-10-18T09:09:42.542Z,95.59
2022-10-18T09:14:17.028Z,95.35
2022-10-18T09:18:37.047Z,95.05
2022-10-18T09:22:52.249Z,94.62
2022-10-18T09:26:59.862Z,94.34
2022-10-18T09:31:07.750Z,94.34
2022-10-18T09:35:14.942Z,94.54
2022-10-18T09:39:21.518Z,94.52
2022-10-18T09:43:24.779Z,92.95
2022-10-18T09:47:32.538Z,92.42
2022-10-18T09:51:37.364Z,92.09
2022-10-18T09:55:54.465Z,91.61
2022-10-18T09:59:57.778Z,92.49
2022-10-18T10:03:59.192Z,92.02
2022-10-18T10:08:00.755Z,91.74
2022-10-18T10:12:04.007Z,90.61
2022-10-18T10:16:06.101Z,90.04
2022-10-18T10:20:17.895Z,89.34
2022-10-18T10:24:26.203Z,89.71
2022-10-18T10:28:36.201Z,89.22
2022-10-18T10:32:46.756Z,89.36
2022-10-18T10:36:50.368Z,89.93
2022-10-18T10:40:52.403Z,89.06
2022-10-18T10:44:55.522Z,88.95
2022-10-18T10:49:21.701Z,90.23
2022-10-18T10:53:41.586Z,90.59
2022-10-18T10:57:45.812Z,90.40
2022-10-18T11:01:48.638Z,90.02
2022-10-18T11:05:51.126Z,91.39
2022-10-18T11:10:01.278Z,91.33
2022-10-18T11:14:26.211Z,90.39
2022-10-18T11:18:33.212Z,88.70
2022-10-18T11:22:38.660Z,87.71
2022-10-18T11:26:53.475Z,87.87
2022-10-18T11:31:07.533Z,83.67
2022-10-18T11:35:30.039Z,83.39
2022-10-18T11:39:42.487Z,82.68
2022-10-18T11:44:02.163Z,84.17
2022-10-18T11:48:20.055Z,84.14
2022-10-18T11:52:33.666Z,84.22
2022-10-18T11:56:42.457Z,84.18
2022-10-18T12:00:49.300Z,83.38
2022-10-18T12:05:22.082Z,82.33
2022-10-18T12:09:25.491Z,78.15
2022-10-18T12:13:36.149Z,75.85
2022-10-18T12:17:48.903Z,71.96
2022-10-18T12:21:51.852Z,70.89
2022-10-18T12:26:01.758Z,72.87
2022-10-18T12:30:13.267Z,71.26
2022-10-18T12:34:33.490Z,73.94
2022-10-18T12:38:37.873Z,73.82
2022-10-18T12:42:44.239Z,74.23
2022-10-18T12:46:48.090Z,75.93
2022-10-18T12:50:58.619Z,77.52
2022-10-18T12:55:28.658Z,75.56
2022-10-18T12:59:52.346Z,78.46
2022-10-18T13:03:55.524Z,78.85
2022-10-18T13:08:23.074Z,79.29
2022-10-18T13:12:51.300Z,77.11
2022-10-18T13:16:59.124Z,78.07
2022-10-18T13:21:13.165Z,78.21
2022-10-18T13:25:21.512Z,77.86
2022-10-18T13:29:44.124Z,80.25
2022-10-18T13:33:47.190Z,79.82
2022-10-18T13:37:58.220Z,77.63
2022-10-18T13:42:29.715Z,79.35
2022-10-18T13:47:13.001Z,78.61
2022-10-18T13:51:35.423Z,81.47
2022-10-18T13:55:49.817Z,81.68
2022-10-18T14:00:20.456Z,79.48
2022-10-18T14:04:39.487Z,77.04
2022-10-18T14:08:49.291Z,80.91
2022-10-18T14:12:56.262Z,79.33
2022-10-18T14:17:04.328Z,76.99
2022-10-18T14:21:15.240Z,77.81
2022-10-18T14:25:22.607Z,75.98
2022-10-18T14:29:24.264Z,75.41
2022-10-18T14:33:27.937Z,76.99
2022-10-18T14:37:34.245Z,76.69
2022-10-18T14:41:47.448Z,76.16
2022-10-18T14:45:48.902Z,75.08
2022-10-18T14:49:51.501Z,75.42
2022-10-18T14:53:54.431Z,77.51
2022-10-18T14:58:00.085Z,78.00
2022-10-18T15:02:04.378Z,78.68
2022-10-18T15:06:06.389Z,80.56
2022-10-18T15:10:14.561Z,81.09
2022-10-18T15:14:19.886Z,80.16
2022-10-18T15:18:23.899Z,78.92
2022-10-18T15:22:31.680Z,78.59
2022-10-18T15:26:34.072Z,80.44
2022-10-18T15:30:39.924Z,80.81
2022-10-18T15:34:41.603Z,81.61
2022-10-18T15:38:46.311Z,82.11
2022-10-18T15:42:52.722Z,83.83
2022-10-18T15:47:09.523Z,84.03
2022-10-18T15:51:32.095Z,83.80
2022-10-18T15:55:52.199Z,83.73
2022-10-18T15:59:59.691Z,84.74
2022-10-18T16:04:07.880Z,84.70
2022-10-18T16:08:19.400Z,84.91
2022-10-18T16:12:20.867Z,84.53
2022-10-18T16:16:24.571Z,84.87
2022-10-18T16:20:28.396Z,85.37
2022-10-18T16:24:29.898Z,85.13
2022-10-18T16:28:31.400Z,85.04
2022-10-18T16:32:33.486Z,85.04
2022-10-18T16:36:37.059Z,85.58
2022-10-18T16:40:41.195Z,84.88
2022-10-18T16:44:43.009Z,85.28
2022-10-18T16:48:45.778Z,84.74
2022-10-18T16:52:48.597Z,84.69
2022-10-18T16:56:50.448Z,84.82
2022-10-18T17:00:52.346Z,84.75
2022-10-18T17:04:54.082Z,85.36
2022-10-18T17:08:57.800Z,85.18
2022-10-18T17:12:59.458Z,85.15
2022-10-18T17:17:00.874Z,85.07
2022-10-18T17:21:02.494Z,85.90
2022-10-18T17:25:05.990Z,86.25
2022-10-18T17:29:07.771Z,86.15
2022-10-18T17:33:09.862Z,85.59
2022-10-18T17:37:11.486Z,85.55
2022-10-18T17:41:15.163Z,85.94
2022-10-18T17:45:17.117Z,86.08
2022-10-18T17:49:18.869Z,85.48
2022-10-18T17:53:20.510Z,85.45
2022-10-18T17:57:23.321Z,85.20
2022-10-18T18:01:25.508Z,85.46
2022-10-18T18:05:31.040Z,86.15
2022-10-18T18:09:32.498Z,86.23
2022-10-18T18:13:35.653Z,85.97
2022-10-18T18:17:55.900Z,86.23
2022-10-18T18:21:58.689Z,85.36
2022-10-18T18:26:00.354Z,86.12
2022-10-18T18:30:03.930Z,86.31
2022-10-18T18:34:05.554Z,85.37
2022-10-18T18:38:07.030Z,85.71
2022-10-18T18:42:08.645Z,85.67
2022-10-18T18:46:12.183Z,85.74
2022-10-18T18:50:13.746Z,85.66
2022-10-18T18:54:15.606Z,85.18
2022-10-18T18:58:17.182Z,84.95
2022-10-18T19:02:20.076Z,85.34
2022-10-18T19:06:24.428Z,84.95
2022-10-18T19:10:26.092Z,85.13
2022-10-18T19:14:27.703Z,85.36
2022-10-18T19:18:30.872Z,85.17
2022-10-18T19:22:32.534Z,85.37
2022-10-18T19:26:37.021Z,85.25
2022-10-18T19:30:38.607Z,85.07
2022-10-18T19:34:41.605Z,85.11
2022-10-18T19:38:43.186Z,85.32
2022-10-18T19:42:44.689Z,85.15
2022-10-18T19:46:46.434Z,85.69
2022-10-18T19:50:49.180Z,85.61
2022-10-18T19:54:53.222Z,85.18
2022-10-18T19:58:55.238Z,85.64
2022-10-18T20:02:56.878Z,85.35
2022-10-18T20:06:59.978Z,85.81
2022-10-18T20:11:04.358Z,85.89
2022-10-18T20:15:06.540Z,85.51
2022-10-18T20:19:10.463Z,85.53
2022-10-18T20:23:13.613Z,85.55
2022-10-18T20:27:15.339Z,85.85
2022-10-18T20:31:18.881Z,86.51
2022-10-18T20:35:20.557Z,86.67
2022-10-18T20:39:23.667Z,86.88
2022-10-18T20:43:25.222Z,86.04
2022-10-18T20:47:26.679Z,86.11
2022-10-18T20:51:28.490Z,85.90
2022-10-18T20:55:31.277Z,85.38
2022-10-18T20:59:32.691Z,85.48
2022-10-18T21:03:37.046Z,85.69
2022-10-18T21:07:38.686Z,86.20
2022-10-18T21:11:44.697Z,85.26
2022-10-18T21:15:53.694Z,84.99
2022-10-18T21:19:55.330Z,85.21
2022-10-18T21:23:56.934Z,85.18
2022-10-18T21:27:59.894Z,85.31
2022-10-18T21:32:01.532Z,85.21
2022-10-18T21:36:03.237Z,85.48
2022-10-18T21:40:06.133Z,85.30
2022-10-18T21:44:10.910Z,85.54
2022-10-18T21:48:12.752Z,85.46
2022-10-18T21:52:14.278Z,85.35
2022-10-18T21:56:18.469Z,84.90
2022-10-18T22:00:21.318Z,85.03
2022-10-18T22:04:24.704Z,85.47
2022-10-18T22:08:28.066Z,86.30
2022-10-18T22:12:29.826Z,86.64
2022-10-18T22:16:33.006Z,87.49
2022-10-18T22:20:34.456Z,87.81
2022-10-18T22:28:44.101Z,87.08
2022-10-18T22:32:46.978Z,86.39
2022-10-18T22:36:48.734Z,86.08
2022-10-18T22:40:50.199Z,86.77
2022-10-18T22:44:53.414Z,86.43
2022-10-18T22:48:56.382Z,86.79
2022-10-18T22:52:58.046Z,86.48
2022-10-18T22:56:59.798Z,86.40
2022-10-18T23:01:02.989Z,86.18
2022-10-18T23:05:06.441Z,86.23
2022-10-18T23:09:10.748Z,86.22
2022-10-18T23:13:12.768Z,86.37
2022-10-18T23:17:14.403Z,86.41
2022-10-18T23:21:18.326Z,86.76
2022-10-18T23:25:20.109Z,86.40
2022-10-18T23:29:21.707Z,86.29
2022-10-18T23:33:23.375Z,86.29
2022-10-18T23:37:26.730Z,85.97
2022-10-18T23:41:28.191Z,85.75
2022-10-18T23:45:29.877Z,85.37
2022-10-18T23:49:31.410Z,85.99
2022-10-18T23:53:34.442Z,86.26
2022-10-18T23:57:36.148Z,86.37
